sensor_id;sensor_type;location;lat;lon;timestamp;P1;durP1;ratioP1;P2;durP2;ratioP2
50319;SDS011;36226;53.464;9.852;2022-07-10T00:00:12;6.68;;;0.60;;
50319;SDS011;36226;53.464;9.852;2022-07-10T00:02:38;3.15;;;0.47;;
50319;SDS011;36226;53.464;9.852;2022-07-10T00:05:05;2.70;;;0.50;;
50319;SDS011;36226;53.464;9.852;2022-07-10T00:07:31;3.35;;;0.60;;
50319;SDS011;36226;53.464;9.852;2022-07-10T00:09:56;2.78;;;0.50;;
50319;SDS011;36226;53.464;9.852;2022-07-10T00:12:21;4.40;;;0.70;;
50319;SDS011;36226;53.464;9.852;2022-07-10T00:14:47;2.65;;;0.40;;
50319;SDS011;36226;53.464;9.852;2022-07-10T00:17:12;5.18;;;0.68;;
50319;SDS011;36226;53.464;9.852;2022-07-10T00:19:37;3.42;;;0.65;;
50319;SDS011;36226;53.464;9.852;2022-07-10T00:22:03;4.82;;;0.65;;
50319;SDS011;36226;53.464;9.852;2022-07-10T00:24:28;5.10;;;0.52;;
50319;SDS011;36226;53.464;9.852;2022-07-10T00:26:54;4.32;;;0.47;;
50319;SDS011;36226;53.464;9.852;2022-07-10T00:29:19;4.68;;;0.60;;
50319;SDS011;36226;53.464;9.852;2022-07-10T00:31:44;2.75;;;0.60;;
50319;SDS011;36226;53.464;9.852;2022-07-10T00:34:09;3.72;;;0.55;;
50319;SDS011;36226;53.464;9.852;2022-07-10T00:36:35;3.25;;;0.60;;
50319;SDS011;36226;53.464;9.852;2022-07-10T00:39:01;3.63;;;0.73;;
50319;SDS011;36226;53.464;9.852;2022-07-10T00:41:26;5.20;;;0.60;;
50319;SDS011;36226;53.464;9.852;2022-07-10T00:43:55;5.13;;;0.60;;
50319;SDS011;36226;53.464;9.852;2022-07-10T00:46:22;2.78;;;0.45;;
50319;SDS011;36226;53.464;9.852;2022-07-10T00:48:49;3.88;;;0.60;;
50319;SDS011;36226;53.464;9.852;2022-07-10T00:51:15;3.00;;;0.60;;
50319;SDS011;36226;53.464;9.852;2022-07-10T00:53:42;3.33;;;0.50;;
50319;SDS011;36226;53.464;9.852;2022-07-10T00:56:10;4.70;;;0.70;;
50319;SDS011;36226;53.464;9.852;2022-07-10T00:58:35;3.72;;;0.95;;
50319;SDS011;36226;53.464;9.852;2022-07-10T01:01:01;2.65;;;0.55;;
50319;SDS011;36226;53.464;9.852;2022-07-10T01:03:27;2.95;;;0.50;;
50319;SDS011;36226;53.464;9.852;2022-07-10T01:05:52;3.60;;;0.70;;
50319;SDS011;36226;53.464;9.852;2022-07-10T01:08:17;2.53;;;0.68;;
50319;SDS011;36226;53.464;9.852;2022-07-10T01:10:43;3.92;;;0.47;;
50319;SDS011;36226;53.464;9.852;2022-07-10T01:13:09;6.55;;;0.65;;
50319;SDS011;36226;53.464;9.852;2022-07-10T01:15:35;2.45;;;0.43;;
50319;SDS011;36226;53.464;9.852;2022-07-10T01:18:01;3.22;;;0.63;;
50319;SDS011;36226;53.464;9.852;2022-07-10T01:20:33;3.97;;;0.52;;
50319;SDS011;36226;53.464;9.852;2022-07-10T01:22:59;5.53;;;0.70;;
50319;SDS011;36226;53.464;9.852;2022-07-10T01:25:24;3.50;;;0.70;;
50319;SDS011;36226;53.464;9.852;2022-07-10T01:27:50;4.45;;;0.77;;
50319;SDS011;36226;53.464;9.852;2022-07-10T01:30:16;3.42;;;0.50;;
50319;SDS011;36226;53.464;9.852;2022-07-10T01:32:42;5.28;;;0.63;;
50319;SDS011;36226;53.464;9.852;2022-07-10T01:35:08;5.00;;;0.60;;
50319;SDS011;36226;53.464;9.852;2022-07-10T01:37:34;4.60;;;0.57;;
50319;SDS011;36226;53.464;9.852;2022-07-10T01:39:59;2.88;;;0.60;;
50319;SDS011;36226;53.464;9.852;2022-07-10T01:42:24;4.30;;;0.60;;
50319;SDS011;36226;53.464;9.852;2022-07-10T01:44:50;3.22;;;0.73;;
50319;SDS011;36226;53.464;9.852;2022-07-10T01:47:15;2.53;;;0.50;;
50319;SDS011;36226;53.464;9.852;2022-07-10T01:49:40;5.70;;;0.75;;
50319;SDS011;36226;53.464;9.852;2022-07-10T01:52:06;2.65;;;0.60;;
50319;SDS011;36226;53.464;9.852;2022-07-10T01:54:31;7.13;;;0.63;;
50319;SDS011;36226;53.464;9.852;2022-07-10T01:56:57;6.35;;;0.68;;
50319;SDS011;36226;53.464;9.852;2022-07-10T01:59:22;3.15;;;0.60;;
50319;SDS011;36226;53.464;9.852;2022-07-10T02:01:47;6.15;;;0.93;;
50319;SDS011;36226;53.464;9.852;2022-07-10T02:04:13;2.03;;;0.50;;
50319;SDS011;36226;53.464;9.852;2022-07-10T02:06:56;2.95;;;0.73;;
50319;SDS011;36226;53.464;9.852;2022-07-10T02:09:22;4.72;;;0.82;;
50319;SDS011;36226;53.464;9.852;2022-07-10T02:11:47;3.03;;;0.75;;
50319;SDS011;36226;53.464;9.852;2022-07-10T02:14:12;6.53;;;0.80;;
50319;SDS011;36226;53.464;9.852;2022-07-10T02:16:38;5.82;;;0.88;;
50319;SDS011;36226;53.464;9.852;2022-07-10T02:19:04;5.47;;;0.70;;
50319;SDS011;36226;53.464;9.852;2022-07-10T02:21:29;7.13;;;0.90;;
50319;SDS011;36226;53.464;9.852;2022-07-10T02:23:55;5.90;;;0.65;;
50319;SDS011;36226;53.464;9.852;2022-07-10T02:26:20;7.53;;;0.90;;
50319;SDS011;36226;53.464;9.852;2022-07-10T02:28:45;6.07;;;1.15;;
50319;SDS011;36226;53.464;9.852;2022-07-10T02:31:11;4.18;;;0.80;;
50319;SDS011;36226;53.464;9.852;2022-07-10T02:33:36;9.88;;;1.02;;
50319;SDS011;36226;53.464;9.852;2022-07-10T02:36:02;4.70;;;1.42;;
50319;SDS011;36226;53.464;9.852;2022-07-10T02:38:28;2.85;;;0.80;;
50319;SDS011;36226;53.464;9.852;2022-07-10T02:40:54;6.15;;;1.15;;
50319;SDS011;36226;53.464;9.852;2022-07-10T02:43:19;4.53;;;0.80;;
50319;SDS011;36226;53.464;9.852;2022-07-10T02:45:45;4.20;;;0.70;;
50319;SDS011;36226;53.464;9.852;2022-07-10T02:48:11;4.88;;;1.00;;
50319;SDS011;36226;53.464;9.852;2022-07-10T02:50:43;3.13;;;0.80;;
50319;SDS011;36226;53.464;9.852;2022-07-10T02:53:08;8.82;;;2.55;;
50319;SDS011;36226;53.464;9.852;2022-07-10T02:55:33;5.30;;;1.00;;
50319;SDS011;36226;53.464;9.852;2022-07-10T02:57:59;6.78;;;0.95;;
50319;SDS011;36226;53.464;9.852;2022-07-10T03:00:25;5.50;;;1.00;;
50319;SDS011;36226;53.464;9.852;2022-07-10T03:02:51;5.28;;;1.00;;
50319;SDS011;36226;53.464;9.852;2022-07-10T03:05:17;5.25;;;0.98;;
50319;SDS011;36226;53.464;9.852;2022-07-10T03:07:42;7.50;;;1.10;;
50319;SDS011;36226;53.464;9.852;2022-07-10T03:10:08;9.20;;;1.30;;
50319;SDS011;36226;53.464;9.852;2022-07-10T03:12:34;9.82;;;1.13;;
50319;SDS011;36226;53.464;9.852;2022-07-10T03:14:59;6.65;;;1.13;;
50319;SDS011;36226;53.464;9.852;2022-07-10T03:17:25;6.47;;;1.20;;
50319;SDS011;36226;53.464;9.852;2022-07-10T03:19:50;9.70;;;1.40;;
50319;SDS011;36226;53.464;9.852;2022-07-10T03:22:15;3.40;;;1.10;;
50319;SDS011;36226;53.464;9.852;2022-07-10T03:24:41;6.68;;;1.10;;
50319;SDS011;36226;53.464;9.852;2022-07-10T03:27:08;7.35;;;1.35;;
50319;SDS011;36226;53.464;9.852;2022-07-10T03:29:33;6.43;;;1.20;;
50319;SDS011;36226;53.464;9.852;2022-07-10T03:31:58;6.60;;;1.17;;
50319;SDS011;36226;53.464;9.852;2022-07-10T03:34:24;4.85;;;1.20;;
50319;SDS011;36226;53.464;9.852;2022-07-10T03:36:49;7.45;;;1.10;;
50319;SDS011;36226;53.464;9.852;2022-07-10T03:39:14;7.68;;;1.05;;
50319;SDS011;36226;53.464;9.852;2022-07-10T03:41:40;6.00;;;1.10;;
50319;SDS011;36226;53.464;9.852;2022-07-10T03:44:05;7.93;;;1.23;;
50319;SDS011;36226;53.464;9.852;2022-07-10T03:46:31;8.15;;;1.30;;
50319;SDS011;36226;53.464;9.852;2022-07-10T03:48:56;8.88;;;1.40;;
50319;SDS011;36226;53.464;9.852;2022-07-10T03:51:21;10.10;;;1.60;;
50319;SDS011;36226;53.464;9.852;2022-07-10T03:53:47;6.07;;;1.25;;
50319;SDS011;36226;53.464;9.852;2022-07-10T03:56:12;8.18;;;1.80;;
50319;SDS011;36226;53.464;9.852;2022-07-10T03:58:57;8.90;;;1.10;;
50319;SDS011;36226;53.464;9.852;2022-07-10T04:01:22;5.78;;;1.60;;
50319;SDS011;36226;53.464;9.852;2022-07-10T04:03:48;7.72;;;1.73;;
50319;SDS011;36226;53.464;9.852;2022-07-10T04:06:13;6.22;;;1.80;;
50319;SDS011;36226;53.464;9.852;2022-07-10T04:08:38;7.60;;;1.30;;
50319;SDS011;36226;53.464;9.852;2022-07-10T04:11:04;8.50;;;1.45;;
50319;SDS011;36226;53.464;9.852;2022-07-10T04:13:29;8.75;;;1.63;;
50319;SDS011;36226;53.464;9.852;2022-07-10T04:15:55;8.43;;;1.23;;
50319;SDS011;36226;53.464;9.852;2022-07-10T04:18:20;7.88;;;1.48;;
50319;SDS011;36226;53.464;9.852;2022-07-10T04:20:45;7.82;;;1.40;;
50319;SDS011;36226;53.464;9.852;2022-07-10T04:23:11;5.22;;;1.45;;
50319;SDS011;36226;53.464;9.852;2022-07-10T04:25:36;6.45;;;1.40;;
50319;SDS011;36226;53.464;9.852;2022-07-10T04:28:01;9.38;;;1.92;;
50319;SDS011;36226;53.464;9.852;2022-07-10T04:30:27;10.02;;;1.50;;
50319;SDS011;36226;53.464;9.852;2022-07-10T04:32:52;12.90;;;1.88;;
50319;SDS011;36226;53.464;9.852;2022-07-10T04:35:17;6.97;;;1.50;;
50319;SDS011;36226;53.464;9.852;2022-07-10T04:37:43;6.93;;;1.50;;
50319;SDS011;36226;53.464;9.852;2022-07-10T04:40:08;10.88;;;1.70;;
50319;SDS011;36226;53.464;9.852;2022-07-10T04:42:35;9.82;;;1.75;;
50319;SDS011;36226;53.464;9.852;2022-07-10T04:45:00;9.30;;;1.65;;
50319;SDS011;36226;53.464;9.852;2022-07-10T04:47:27;12.82;;;2.05;;
50319;SDS011;36226;53.464;9.852;2022-07-10T04:49:52;8.05;;;1.85;;
50319;SDS011;36226;53.464;9.852;2022-07-10T04:52:17;10.55;;;1.42;;
50319;SDS011;36226;53.464;9.852;2022-07-10T04:54:43;8.25;;;2.00;;
50319;SDS011;36226;53.464;9.852;2022-07-10T04:57:08;7.75;;;2.03;;
50319;SDS011;36226;53.464;9.852;2022-07-10T04:59:33;8.07;;;1.90;;
50319;SDS011;36226;53.464;9.852;2022-07-10T05:01:59;9.80;;;1.58;;
50319;SDS011;36226;53.464;9.852;2022-07-10T05:04:24;9.52;;;1.63;;
50319;SDS011;36226;53.464;9.852;2022-07-10T05:06:49;6.35;;;1.70;;
50319;SDS011;36226;53.464;9.852;2022-07-10T05:09:15;10.05;;;1.83;;
50319;SDS011;36226;53.464;9.852;2022-07-10T05:11:40;8.48;;;2.00;;
50319;SDS011;36226;53.464;9.852;2022-07-10T05:14:06;12.75;;;1.70;;
50319;SDS011;36226;53.464;9.852;2022-07-10T05:16:31;9.68;;;2.08;;
50319;SDS011;36226;53.464;9.852;2022-07-10T05:18:56;9.95;;;1.83;;
50319;SDS011;36226;53.464;9.852;2022-07-10T05:21:22;10.82;;;2.20;;
50319;SDS011;36226;53.464;9.852;2022-07-10T05:23:47;11.93;;;1.90;;
50319;SDS011;36226;53.464;9.852;2022-07-10T05:26:12;8.07;;;1.77;;
50319;SDS011;36226;53.464;9.852;2022-07-10T05:28:38;5.20;;;1.45;;
50319;SDS011;36226;53.464;9.852;2022-07-10T05:31:03;8.25;;;1.77;;
50319;SDS011;36226;53.464;9.852;2022-07-10T05:33:29;14.15;;;2.13;;
50319;SDS011;36226;53.464;9.852;2022-07-10T05:35:54;8.63;;;1.73;;
50319;SDS011;36226;53.464;9.852;2022-07-10T05:38:20;13.52;;;1.77;;
50319;SDS011;36226;53.464;9.852;2022-07-10T05:40:45;8.57;;;1.60;;
50319;SDS011;36226;53.464;9.852;2022-07-10T05:43:11;8.38;;;1.90;;
50319;SDS011;36226;53.464;9.852;2022-07-10T05:45:36;8.63;;;1.70;;
50319;SDS011;36226;53.464;9.852;2022-07-10T05:48:02;11.15;;;2.00;;
50319;SDS011;36226;53.464;9.852;2022-07-10T05:50:27;10.68;;;1.95;;
50319;SDS011;36226;53.464;9.852;2022-07-10T05:52:53;10.43;;;1.95;;
50319;SDS011;36226;53.464;9.852;2022-07-10T05:55:18;11.02;;;2.00;;
50319;SDS011;36226;53.464;9.852;2022-07-10T05:57:43;9.40;;;1.90;;
50319;SDS011;36226;53.464;9.852;2022-07-10T06:00:09;8.13;;;1.60;;
50319;SDS011;36226;53.464;9.852;2022-07-10T06:02:35;9.43;;;1.85;;
50319;SDS011;36226;53.464;9.852;2022-07-10T06:05:00;9.57;;;2.40;;
50319;SDS011;36226;53.464;9.852;2022-07-10T06:07:26;9.32;;;1.92;;
50319;SDS011;36226;53.464;9.852;2022-07-10T06:09:51;12.93;;;1.92;;
50319;SDS011;36226;53.464;9.852;2022-07-10T06:12:17;16.42;;;1.90;;
50319;SDS011;36226;53.464;9.852;2022-07-10T06:14:42;11.35;;;1.80;;
50319;SDS011;36226;53.464;9.852;2022-07-10T06:17:08;13.38;;;2.22;;
50319;SDS011;36226;53.464;9.852;2022-07-10T06:19:33;10.90;;;2.50;;
50319;SDS011;36226;53.464;9.852;2022-07-10T06:21:58;9.43;;;2.05;;
50319;SDS011;36226;53.464;9.852;2022-07-10T06:24:42;16.05;;;2.15;;
50319;SDS011;36226;53.464;9.852;2022-07-10T06:27:08;12.00;;;1.77;;
50319;SDS011;36226;53.464;9.852;2022-07-10T06:29:33;11.07;;;1.92;;
50319;SDS011;36226;53.464;9.852;2022-07-10T06:31:58;10.70;;;2.00;;
50319;SDS011;36226;53.464;9.852;2022-07-10T06:34:24;12.93;;;2.28;;
50319;SDS011;36226;53.464;9.852;2022-07-10T06:36:49;6.88;;;1.65;;
50319;SDS011;36226;53.464;9.852;2022-07-10T06:39:14;12.38;;;1.73;;
50319;SDS011;36226;53.464;9.852;2022-07-10T06:41:40;16.48;;;2.17;;
50319;SDS011;36226;53.464;9.852;2022-07-10T06:44:05;11.88;;;1.60;;
50319;SDS011;36226;53.464;9.852;2022-07-10T06:46:31;7.80;;;1.83;;
50319;SDS011;36226;53.464;9.852;2022-07-10T06:48:57;10.38;;;1.77;;
50319;SDS011;36226;53.464;9.852;2022-07-10T06:51:22;12.77;;;1.75;;
50319;SDS011;36226;53.464;9.852;2022-07-10T06:53:48;14.38;;;2.03;;
50319;SDS011;36226;53.464;9.852;2022-07-10T06:56:13;12.07;;;1.80;;
50319;SDS011;36226;53.464;9.852;2022-07-10T06:58:41;7.93;;;1.70;;
50319;SDS011;36226;53.464;9.852;2022-07-10T07:01:06;9.73;;;1.50;;
50319;SDS011;36226;53.464;9.852;2022-07-10T07:03:31;13.15;;;1.92;;
50319;SDS011;36226;53.464;9.852;2022-07-10T07:05:57;7.18;;;1.60;;
50319;SDS011;36226;53.464;9.852;2022-07-10T07:08:22;10.23;;;1.30;;
50319;SDS011;36226;53.464;9.852;2022-07-10T07:10:47;12.57;;;1.52;;
50319;SDS011;36226;53.464;9.852;2022-07-10T07:13:12;12.98;;;2.05;;
50319;SDS011;36226;53.464;9.852;2022-07-10T07:15:38;10.02;;;1.58;;
50319;SDS011;36226;53.464;9.852;2022-07-10T07:18:07;8.68;;;1.30;;
50319;SDS011;36226;53.464;9.852;2022-07-10T07:20:33;6.53;;;1.05;;
50319;SDS011;36226;53.464;9.852;2022-07-10T07:23:18;7.45;;;1.50;;
50319;SDS011;36226;53.464;9.852;2022-07-10T07:25:44;8.60;;;1.55;;
50319;SDS011;36226;53.464;9.852;2022-07-10T07:28:12;7.78;;;1.27;;
50319;SDS011;36226;53.464;9.852;2022-07-10T07:30:40;5.05;;;1.00;;
50319;SDS011;36226;53.464;9.852;2022-07-10T07:33:06;6.47;;;1.13;;
50319;SDS011;36226;53.464;9.852;2022-07-10T07:35:31;6.75;;;1.30;;
50319;SDS011;36226;53.464;9.852;2022-07-10T07:37:57;8.35;;;1.50;;
50319;SDS011;36226;53.464;9.852;2022-07-10T07:40:22;6.75;;;1.45;;
50319;SDS011;36226;53.464;9.852;2022-07-10T07:42:54;8.10;;;1.27;;
50319;SDS011;36226;53.464;9.852;2022-07-10T07:45:21;9.85;;;1.50;;
50319;SDS011;36226;53.464;9.852;2022-07-10T07:47:48;10.70;;;1.63;;
50319;SDS011;36226;53.464;9.852;2022-07-10T07:50:14;8.52;;;1.05;;
50319;SDS011;36226;53.464;9.852;2022-07-10T07:52:40;7.38;;;1.27;;
50319;SDS011;36226;53.464;9.852;2022-07-10T07:55:06;7.70;;;1.27;;
50319;SDS011;36226;53.464;9.852;2022-07-10T07:57:32;6.40;;;1.30;;
50319;SDS011;36226;53.464;9.852;2022-07-10T07:59:57;7.57;;;1.38;;
50319;SDS011;36226;53.464;9.852;2022-07-10T08:02:23;10.05;;;1.38;;
50319;SDS011;36226;53.464;9.852;2022-07-10T08:04:48;8.23;;;1.15;;
50319;SDS011;36226;53.464;9.852;2022-07-10T08:07:13;9.48;;;1.45;;
50319;SDS011;36226;53.464;9.852;2022-07-10T08:09:39;7.63;;;1.55;;
50319;SDS011;36226;53.464;9.852;2022-07-10T08:12:04;7.88;;;1.10;;
50319;SDS011;36226;53.464;9.852;2022-07-10T08:14:30;9.40;;;1.55;;
50319;SDS011;36226;53.464;9.852;2022-07-10T08:16:55;7.72;;;1.45;;
50319;SDS011;36226;53.464;9.852;2022-07-10T08:19:20;8.00;;;1.30;;
50319;SDS011;36226;53.464;9.852;2022-07-10T08:21:46;11.00;;;1.13;;
50319;SDS011;36226;53.464;9.852;2022-07-10T08:24:11;8.82;;;1.13;;
50319;SDS011;36226;53.464;9.852;2022-07-10T08:26:36;7.32;;;1.00;;
50319;SDS011;36226;53.464;9.852;2022-07-10T08:29:02;7.53;;;1.33;;
50319;SDS011;36226;53.464;9.852;2022-07-10T08:31:27;9.98;;;1.58;;
50319;SDS011;36226;53.464;9.852;2022-07-10T08:33:53;5.57;;;1.50;;
50319;SDS011;36226;53.464;9.852;2022-07-10T08:36:19;10.02;;;1.55;;
50319;SDS011;36226;53.464;9.852;2022-07-10T08:38:45;7.32;;;1.20;;
50319;SDS011;36226;53.464;9.852;2022-07-10T08:41:10;6.25;;;1.10;;
50319;SDS011;36226;53.464;9.852;2022-07-10T08:43:37;8.73;;;1.15;;
50319;SDS011;36226;53.464;9.852;2022-07-10T08:46:02;8.88;;;1.33;;
50319;SDS011;36226;53.464;9.852;2022-07-10T08:48:29;11.23;;;1.20;;
50319;SDS011;36226;53.464;9.852;2022-07-10T08:50:58;3.65;;;0.85;;
50319;SDS011;36226;53.464;9.852;2022-07-10T08:53:30;9.88;;;1.10;;
50319;SDS011;36226;53.464;9.852;2022-07-10T08:55:56;4.97;;;0.88;;
50319;SDS011;36226;53.464;9.852;2022-07-10T08:58:22;8.05;;;0.90;;
50319;SDS011;36226;53.464;9.852;2022-07-10T09:00:48;9.88;;;1.15;;
50319;SDS011;36226;53.464;9.852;2022-07-10T09:03:13;9.15;;;1.15;;
50319;SDS011;36226;53.464;9.852;2022-07-10T09:05:39;9.02;;;1.23;;
50319;SDS011;36226;53.464;9.852;2022-07-10T09:08:04;3.85;;;0.80;;
50319;SDS011;36226;53.464;9.852;2022-07-10T09:10:47;8.95;;;1.10;;
50319;SDS011;36226;53.464;9.852;2022-07-10T09:13:12;5.38;;;0.73;;
50319;SDS011;36226;53.464;9.852;2022-07-10T09:15:38;12.95;;;1.10;;
50319;SDS011;36226;53.464;9.852;2022-07-10T09:18:04;7.47;;;1.05;;
50319;SDS011;36226;53.464;9.852;2022-07-10T09:20:34;5.18;;;1.00;;
50319;SDS011;36226;53.464;9.852;2022-07-10T09:23:00;7.13;;;1.17;;
50319;SDS011;36226;53.464;9.852;2022-07-10T09:25:44;4.45;;;1.08;;
50319;SDS011;36226;53.464;9.852;2022-07-10T09:28:13;6.00;;;0.82;;
50319;SDS011;36226;53.464;9.852;2022-07-10T09:30:41;4.18;;;0.95;;
50319;SDS011;36226;53.464;9.852;2022-07-10T09:35:54;9.48;;;1.20;;
50319;SDS011;36226;53.464;9.852;2022-07-10T09:41:13;8.52;;;1.33;;
50319;SDS011;36226;53.464;9.852;2022-07-10T09:44:02;10.38;;;1.33;;
50319;SDS011;36226;53.464;9.852;2022-07-10T09:46:35;5.70;;;0.93;;
50319;SDS011;36226;53.464;9.852;2022-07-10T09:49:05;5.03;;;0.95;;
50319;SDS011;36226;53.464;9.852;2022-07-10T09:51:38;7.60;;;1.00;;
50319;SDS011;36226;53.464;9.852;2022-07-10T09:54:08;5.57;;;1.20;;
50319;SDS011;36226;53.464;9.852;2022-07-10T09:59:17;4.45;;;1.00;;
50319;SDS011;36226;53.464;9.852;2022-07-10T10:01:46;6.75;;;1.20;;
50319;SDS011;36226;53.464;9.852;2022-07-10T10:04:13;4.13;;;0.70;;
50319;SDS011;36226;53.464;9.852;2022-07-10T10:06:40;5.80;;;0.90;;
50319;SDS011;36226;53.464;9.852;2022-07-10T10:09:19;7.20;;;1.13;;
50319;SDS011;36226;53.464;9.852;2022-07-10T10:11:48;8.57;;;1.20;;
50319;SDS011;36226;53.464;9.852;2022-07-10T10:14:15;7.10;;;1.00;;
50319;SDS011;36226;53.464;9.852;2022-07-10T10:16:42;6.95;;;1.08;;
50319;SDS011;36226;53.464;9.852;2022-07-10T10:19:08;6.38;;;0.95;;
50319;SDS011;36226;53.464;9.852;2022-07-10T10:21:54;7.38;;;1.27;;
50319;SDS011;36226;53.464;9.852;2022-07-10T10:24:21;5.72;;;1.15;;
50319;SDS011;36226;53.464;9.852;2022-07-10T10:26:47;5.03;;;1.33;;
50319;SDS011;36226;53.464;9.852;2022-07-10T10:29:12;6.00;;;0.90;;
50319;SDS011;36226;53.464;9.852;2022-07-10T10:31:38;6.72;;;0.93;;
50319;SDS011;36226;53.464;9.852;2022-07-10T10:34:05;7.95;;;1.23;;
50319;SDS011;36226;53.464;9.852;2022-07-10T10:39:12;6.38;;;1.08;;
50319;SDS011;36226;53.464;9.852;2022-07-10T10:41:48;6.18;;;1.13;;
50319;SDS011;36226;53.464;9.852;2022-07-10T10:49:23;5.97;;;0.93;;
50319;SDS011;36226;53.464;9.852;2022-07-10T10:54:25;7.53;;;0.77;;
50319;SDS011;36226;53.464;9.852;2022-07-10T10:57:12;7.80;;;1.35;;
50319;SDS011;36226;53.464;9.852;2022-07-10T11:02:21;6.18;;;2.35;;
50319;SDS011;36226;53.464;9.852;2022-07-10T11:08:00;4.93;;;0.90;;
50319;SDS011;36226;53.464;9.852;2022-07-10T11:15:39;8.85;;;1.15;;
50319;SDS011;36226;53.464;9.852;2022-07-10T11:18:11;5.93;;;1.00;;
50319;SDS011;36226;53.464;9.852;2022-07-10T11:20:38;6.28;;;1.13;;
50319;SDS011;36226;53.464;9.852;2022-07-10T11:23:08;3.70;;;1.00;;
50319;SDS011;36226;53.464;9.852;2022-07-10T11:25:52;6.03;;;1.15;;
50319;SDS011;36226;53.464;9.852;2022-07-10T11:28:49;3.10;;;0.70;;
50319;SDS011;36226;53.464;9.852;2022-07-10T11:31:15;3.92;;;1.15;;
50319;SDS011;36226;53.464;9.852;2022-07-10T11:33:41;6.63;;;1.02;;
50319;SDS011;36226;53.464;9.852;2022-07-10T11:36:27;7.90;;;0.90;;
50319;SDS011;36226;53.464;9.852;2022-07-10T11:39:02;9.95;;;1.13;;
50319;SDS011;36226;53.464;9.852;2022-07-10T11:41:32;9.02;;;1.15;;
50319;SDS011;36226;53.464;9.852;2022-07-10T11:44:02;3.92;;;0.80;;
50319;SDS011;36226;53.464;9.852;2022-07-10T11:46:28;4.22;;;0.80;;
50319;SDS011;36226;53.464;9.852;2022-07-10T11:48:54;3.65;;;0.93;;
50319;SDS011;36226;53.464;9.852;2022-07-10T11:56:29;4.30;;;0.95;;
50319;SDS011;36226;53.464;9.852;2022-07-10T11:59:04;8.48;;;0.98;;
50319;SDS011;36226;53.464;9.852;2022-07-10T12:01:32;6.97;;;1.00;;
50319;SDS011;36226;53.464;9.852;2022-07-10T12:04:02;7.00;;;1.00;;
50319;SDS011;36226;53.464;9.852;2022-07-10T12:06:30;4.95;;;1.00;;
50319;SDS011;36226;53.464;9.852;2022-07-10T12:09:04;4.57;;;1.33;;
50319;SDS011;36226;53.464;9.852;2022-07-10T12:11:31;4.82;;;1.00;;
50319;SDS011;36226;53.464;9.852;2022-07-10T12:14:18;7.18;;;1.35;;
50319;SDS011;36226;53.464;9.852;2022-07-10T12:16:47;4.85;;;1.20;;
50319;SDS011;36226;53.464;9.852;2022-07-10T12:19:14;21.38;;;1.48;;
50319;SDS011;36226;53.464;9.852;2022-07-10T12:21:41;4.78;;;0.98;;
50319;SDS011;36226;53.464;9.852;2022-07-10T12:24:07;6.22;;;0.90;;
50319;SDS011;36226;53.464;9.852;2022-07-10T12:26:36;7.97;;;1.33;;
50319;SDS011;36226;53.464;9.852;2022-07-10T12:29:03;9.60;;;1.27;;
50319;SDS011;36226;53.464;9.852;2022-07-10T12:31:30;4.70;;;0.80;;
50319;SDS011;36226;53.464;9.852;2022-07-10T12:34:00;7.35;;;1.00;;
50319;SDS011;36226;53.464;9.852;2022-07-10T12:36:43;7.60;;;1.02;;
50319;SDS011;36226;53.464;9.852;2022-07-10T12:39:16;7.57;;;1.13;;
50319;SDS011;36226;53.464;9.852;2022-07-10T12:44:30;6.90;;;1.20;;
50319;SDS011;36226;53.464;9.852;2022-07-10T12:47:05;5.68;;;1.08;;
50319;SDS011;36226;53.464;9.852;2022-07-10T12:49:53;5.82;;;0.85;;
50319;SDS011;36226;53.464;9.852;2022-07-10T12:52:23;6.82;;;0.93;;
50319;SDS011;36226;53.464;9.852;2022-07-10T13:02:49;4.88;;;1.10;;
50319;SDS011;36226;53.464;9.852;2022-07-10T13:08:06;9.15;;;1.52;;
50319;SDS011;36226;53.464;9.852;2022-07-10T13:10:40;8.77;;;0.90;;
50319;SDS011;36226;53.464;9.852;2022-07-10T13:13:06;5.38;;;1.00;;
50319;SDS011;36226;53.464;9.852;2022-07-10T13:15:32;5.72;;;0.90;;
50319;SDS011;36226;53.464;9.852;2022-07-10T13:18:06;5.70;;;1.27;;
50319;SDS011;36226;53.464;9.852;2022-07-10T13:20:32;4.40;;;0.93;;
50319;SDS011;36226;53.464;9.852;2022-07-10T13:22:57;4.85;;;1.20;;
50319;SDS011;36226;53.464;9.852;2022-07-10T13:25:23;7.80;;;1.05;;
50319;SDS011;36226;53.464;9.852;2022-07-10T13:27:48;4.90;;;1.00;;
50319;SDS011;36226;53.464;9.852;2022-07-10T13:30:13;5.55;;;0.82;;
50319;SDS011;36226;53.464;9.852;2022-07-10T13:32:39;5.32;;;1.05;;
50319;SDS011;36226;53.464;9.852;2022-07-10T13:35:04;10.93;;;1.25;;
50319;SDS011;36226;53.464;9.852;2022-07-10T13:37:30;6.63;;;0.90;;
50319;SDS011;36226;53.464;9.852;2022-07-10T13:39:56;6.25;;;1.05;;
50319;SDS011;36226;53.464;9.852;2022-07-10T13:42:22;5.93;;;0.63;;
50319;SDS011;36226;53.464;9.852;2022-07-10T13:44:47;6.00;;;0.90;;
50319;SDS011;36226;53.464;9.852;2022-07-10T13:47:12;8.45;;;1.00;;
50319;SDS011;36226;53.464;9.852;2022-07-10T13:49:38;5.15;;;0.68;;
50319;SDS011;36226;53.464;9.852;2022-07-10T13:52:03;6.13;;;0.80;;
50319;SDS011;36226;53.464;9.852;2022-07-10T13:54:29;3.85;;;0.88;;
50319;SDS011;36226;53.464;9.852;2022-07-10T13:56:54;7.20;;;1.17;;
50319;SDS011;36226;53.464;9.852;2022-07-10T13:59:19;6.90;;;1.05;;
50319;SDS011;36226;53.464;9.852;2022-07-10T14:01:45;4.53;;;1.02;;
50319;SDS011;36226;53.464;9.852;2022-07-10T14:04:10;6.68;;;1.27;;
50319;SDS011;36226;53.464;9.852;2022-07-10T14:06:35;7.18;;;1.02;;
50319;SDS011;36226;53.464;9.852;2022-07-10T14:09:01;5.95;;;1.20;;
50319;SDS011;36226;53.464;9.852;2022-07-10T14:11:26;7.35;;;1.63;;
50319;SDS011;36226;53.464;9.852;2022-07-10T14:13:52;5.25;;;1.00;;
50319;SDS011;36226;53.464;9.852;2022-07-10T14:16:18;8.07;;;1.40;;
50319;SDS011;36226;53.464;9.852;2022-07-10T14:18:43;8.18;;;0.90;;
50319;SDS011;36226;53.464;9.852;2022-07-10T14:21:09;5.75;;;1.10;;
50319;SDS011;36226;53.464;9.852;2022-07-10T14:23:36;8.00;;;0.90;;
50319;SDS011;36226;53.464;9.852;2022-07-10T14:26:03;4.78;;;1.00;;
50319;SDS011;36226;53.464;9.852;2022-07-10T14:28:30;3.90;;;0.98;;
50319;SDS011;36226;53.464;9.852;2022-07-10T14:30:56;4.40;;;0.77;;
50319;SDS011;36226;53.464;9.852;2022-07-10T14:33:25;5.82;;;0.95;;
50319;SDS011;36226;53.464;9.852;2022-07-10T14:35:50;7.03;;;0.82;;
50319;SDS011;36226;53.464;9.852;2022-07-10T14:38:16;6.75;;;0.85;;
50319;SDS011;36226;53.464;9.852;2022-07-10T14:40:41;6.47;;;1.00;;
50319;SDS011;36226;53.464;9.852;2022-07-10T14:43:06;4.18;;;0.88;;
50319;SDS011;36226;53.464;9.852;2022-07-10T14:45:32;7.95;;;1.20;;
50319;SDS011;36226;53.464;9.852;2022-07-10T14:47:57;5.88;;;1.13;;
50319;SDS011;36226;53.464;9.852;2022-07-10T14:50:23;2.25;;;0.68;;
50319;SDS011;36226;53.464;9.852;2022-07-10T14:52:48;9.15;;;1.00;;
50319;SDS011;36226;53.464;9.852;2022-07-10T14:55:14;5.15;;;0.93;;
50319;SDS011;36226;53.464;9.852;2022-07-10T14:57:39;6.05;;;1.15;;
50319;SDS011;36226;53.464;9.852;2022-07-10T15:00:05;7.78;;;1.63;;
50319;SDS011;36226;53.464;9.852;2022-07-10T15:02:31;3.72;;;0.75;;
50319;SDS011;36226;53.464;9.852;2022-07-10T15:04:56;6.85;;;0.88;;
50319;SDS011;36226;53.464;9.852;2022-07-10T15:07:22;4.47;;;0.82;;
50319;SDS011;36226;53.464;9.852;2022-07-10T15:09:47;10.57;;;1.30;;
50319;SDS011;36226;53.464;9.852;2022-07-10T15:12:13;5.72;;;0.90;;
50319;SDS011;36226;53.464;9.852;2022-07-10T15:14:38;4.53;;;0.88;;
50319;SDS011;36226;53.464;9.852;2022-07-10T15:17:04;6.78;;;0.95;;
50319;SDS011;36226;53.464;9.852;2022-07-10T15:19:29;2.90;;;0.73;;
50319;SDS011;36226;53.464;9.852;2022-07-10T15:21:55;4.25;;;0.82;;
50319;SDS011;36226;53.464;9.852;2022-07-10T15:24:20;6.72;;;1.30;;
50319;SDS011;36226;53.464;9.852;2022-07-10T15:26:46;4.68;;;0.80;;
50319;SDS011;36226;53.464;9.852;2022-07-10T15:29:11;6.78;;;1.02;;
50319;SDS011;36226;53.464;9.852;2022-07-10T15:31:37;5.18;;;0.90;;